createdAt,value
2023-10-23T00:00:19.842Z,1007.44
2023-10-23T00:01:19.845Z,1007.43
2023-10-23T00:02:19.845Z,1007.43
2023-10-23T00:03:20.065Z,1007.43
2023-10-23T00:04:19.993Z,1007.44
2023-10-23T00:05:20.075Z,1007.44
2023-10-23T00:06:19.983Z,1007.41
2023-10-23T00:07:19.914Z,1007.42
2023-10-23T00:08:19.926Z,1007.38
2023-10-23T00:09:19.954Z,1007.42
2023-10-23T00:10:19.956Z,1007.41
2023-10-23T00:11:19.974Z,1007.45
2023-10-23T00:12:20.018Z,1007.45
2023-10-23T00:13:20.003Z,1007.51
2023-10-23T00:14:20.024Z,1007.50
2023-10-23T00:15:20.075Z,1007.53
2023-10-23T00:16:20.062Z,1007.53
2023-10-23T00:17:20.066Z,1007.53
2023-10-23T00:18:20.109Z,1007.51
2023-10-23T00:19:20.100Z,1007.52
2023-10-23T00:20:20.114Z,1007.50
2023-10-23T00:21:20.143Z,1007.52
2023-10-23T00:22:20.141Z,1007.49
2023-10-23T00:23:20.155Z,1007.51
2023-10-23T00:24:20.204Z,1007.51
2023-10-23T00:25:20.183Z,1007.54
2023-10-23T00:26:20.197Z,1007.51
2023-10-23T00:27:20.239Z,1007.51
2023-10-23T00:28:20.227Z,1007.56
2023-10-23T00:29:20.244Z,1007.54
2023-10-23T00:30:20.302Z,1007.60
2023-10-23T00:31:20.298Z,1007.59
2023-10-23T00:32:20.318Z,1007.59
2023-10-23T00:33:20.392Z,1007.61
2023-10-23T00:34:20.335Z,1007.62
2023-10-23T00:35:20.332Z,1007.60
2023-10-23T00:36:20.385Z,1007.58
2023-10-23T00:37:20.362Z,1007.57
2023-10-23T00:38:20.376Z,1007.63
2023-10-23T00:39:20.407Z,1007.57
2023-10-23T00:40:20.404Z,1007.55
2023-10-23T00:41:20.422Z,1007.58
2023-10-23T00:42:20.499Z,1007.56
2023-10-23T00:43:20.448Z,1007.60
2023-10-23T00:44:20.467Z,1007.59
2023-10-23T00:45:20.500Z,1007.57
2023-10-23T00:46:20.503Z,1007.54
2023-10-23T00:47:20.515Z,1007.56
2023-10-23T00:48:20.577Z,1007.53
2023-10-23T00:49:20.537Z,1007.52
2023-10-23T00:50:20.561Z,1007.50
2023-10-23T00:51:20.629Z,1007.49
2023-10-23T00:52:20.584Z,1007.51
2023-10-23T00:53:20.596Z,1007.49
2023-10-23T00:54:20.706Z,1007.56
2023-10-23T00:55:20.625Z,1007.54
2023-10-23T00:56:20.639Z,1007.57
2023-10-23T00:57:20.669Z,1007.56
2023-10-23T00:58:20.674Z,1007.55
2023-10-23T00:59:20.683Z,1007.52
2023-10-23T01:00:20.730Z,1007.52
2023-10-23T01:01:20.739Z,1007.56
2023-10-23T01:02:20.766Z,1007.56
2023-10-23T01:03:20.806Z,1007.54
2023-10-23T01:04:20.763Z,1007.52
2023-10-23T01:05:20.782Z,1007.55
2023-10-23T01:06:20.811Z,1007.55
2023-10-23T01:07:20.808Z,1007.58
2023-10-23T01:08:20.824Z,1007.57
2023-10-23T01:09:20.887Z,1007.55
2023-10-23T01:10:20.853Z,1007.57
2023-10-23T01:11:20.941Z,1007.65
2023-10-23T01:12:20.935Z,1007.62
2023-10-23T01:13:20.934Z,1007.63
2023-10-23T01:14:20.915Z,1007.64
2023-10-23T01:15:20.957Z,1007.60
2023-10-23T01:16:21.012Z,1007.63
2023-10-23T01:17:20.959Z,1007.61
2023-10-23T01:18:21.029Z,1007.61
2023-10-23T01:19:20.987Z,1007.63
2023-10-23T01:20:21.007Z,1007.63
2023-10-23T01:21:21.059Z,1007.64
2023-10-23T01:22:21.033Z,1007.60
2023-10-23T01:23:21.050Z,1007.61
2023-10-23T01:24:21.087Z,1007.58
2023-10-23T01:25:21.077Z,1007.63
2023-10-23T01:26:21.100Z,1007.62
2023-10-23T01:27:21.133Z,1007.66
2023-10-23T01:28:21.120Z,1007.63
2023-10-23T01:29:21.136Z,1007.67
2023-10-23T01:30:21.175Z,1007.71
2023-10-23T01:31:21.176Z,1007.67
2023-10-23T01:32:21.182Z,1007.71
2023-10-23T01:33:21.230Z,1007.72
2023-10-23T01:34:21.214Z,1007.75
2023-10-23T01:35:21.223Z,1007.73
2023-10-23T01:36:21.245Z,1007.77
2023-10-23T01:37:21.251Z,1007.77
2023-10-23T01:38:21.262Z,1007.80
2023-10-23T01:39:21.295Z,1007.78
2023-10-23T01:40:21.292Z,1007.79
2023-10-23T01:41:21.300Z,1007.75
2023-10-23T01:42:21.334Z,1007.75
2023-10-23T01:43:21.334Z,1007.74
2023-10-23T01:44:21.343Z,1007.76
2023-10-23T01:45:21.383Z,1007.76
2023-10-23T01:46:21.392Z,1007.74
2023-10-23T01:47:21.434Z,1007.75
2023-10-23T01:48:21.451Z,1007.77
2023-10-23T01:49:21.420Z,1007.80
2023-10-23T01:50:21.437Z,1007.81
2023-10-23T01:51:21.459Z,1007.81
2023-10-23T01:52:21.454Z,1007.79
2023-10-23T01:53:21.468Z,1007.78
2023-10-23T01:54:21.515Z,1007.75
2023-10-23T01:55:21.494Z,1007.75
2023-10-23T01:56:21.514Z,1007.79
2023-10-23T01:57:21.551Z,1007.78
2023-10-23T01:58:21.539Z,1007.78
2023-10-23T01:59:21.568Z,1007.77
2023-10-23T02:00:21.598Z,1007.76
2023-10-23T02:01:21.652Z,1007.79
2023-10-23T02:02:21.595Z,1007.79
2023-10-23T02:03:21.681Z,1007.79
2023-10-23T02:04:21.658Z,1007.78
2023-10-23T02:05:21.643Z,1007.78
2023-10-23T02:06:21.711Z,1007.81
2023-10-23T02:07:21.692Z,1007.80
2023-10-23T02:08:21.688Z,1007.79
2023-10-23T02:09:21.717Z,1007.81
2023-10-23T02:10:21.709Z,1007.75
2023-10-23T02:11:21.723Z,1007.79
2023-10-23T02:12:21.755Z,1007.77
2023-10-23T02:13:21.750Z,1007.79
2023-10-23T02:14:21.765Z,1007.80
2023-10-23T02:15:21.792Z,1007.79
2023-10-23T02:16:21.837Z,1007.80
2023-10-23T02:17:21.927Z,1007.82
2023-10-23T02:18:21.905Z,1007.80
2023-10-23T02:19:21.840Z,1007.78
2023-10-23T02:20:21.851Z,1007.80
2023-10-23T02:21:21.901Z,1007.79
2023-10-23T02:22:21.879Z,1007.80
2023-10-23T02:23:21.894Z,1007.81
2023-10-23T02:24:21.946Z,1007.83
2023-10-23T02:25:21.930Z,1007.81
2023-10-23T02:26:21.937Z,1007.81
2023-10-23T02:27:22.012Z,1007.81
2023-10-23T02:28:22.015Z,1007.81
2023-10-23T02:29:21.978Z,1007.83
2023-10-23T02:30:22.013Z,1007.82
2023-10-23T02:31:22.103Z,1007.87
2023-10-23T02:32:22.022Z,1007.86
2023-10-23T02:33:22.090Z,1007.87
2023-10-23T02:34:22.053Z,1007.88
2023-10-23T02:35:22.062Z,1007.93
2023-10-23T02:36:22.093Z,1007.94
2023-10-23T02:37:22.092Z,1007.93
2023-10-23T02:38:22.111Z,1007.99
2023-10-23T02:39:22.196Z,1008.00
2023-10-23T02:40:22.138Z,1008.02
2023-10-23T02:41:22.155Z,1008.05
2023-10-23T02:42:22.201Z,1008.08
2023-10-23T02:43:22.184Z,1008.07
2023-10-23T02:44:22.199Z,1008.08
2023-10-23T02:45:22.258Z,1008.08
2023-10-23T02:46:22.320Z,1008.09
2023-10-23T02:47:22.244Z,1008.14
2023-10-23T02:48:22.272Z,1008.15
2023-10-23T02:49:22.267Z,1008.16
2023-10-23T02:50:22.295Z,1008.17
2023-10-23T02:51:22.316Z,1008.19
2023-10-23T02:52:22.341Z,1008.20
2023-10-23T02:53:22.351Z,1008.19
2023-10-23T02:54:22.357Z,1008.19
2023-10-23T02:55:22.357Z,1008.21
2023-10-23T02:56:22.370Z,1008.23
2023-10-23T02:57:22.394Z,1008.22
2023-10-23T02:58:22.407Z,1008.22
2023-10-23T02:59:22.411Z,1008.21
2023-10-23T03:00:22.488Z,1008.25
2023-10-23T03:01:22.552Z,1008.22
2023-10-23T03:02:22.455Z,1008.22
2023-10-23T03:03:22.671Z,1008.23
2023-10-23T03:04:22.540Z,1008.21
2023-10-23T03:05:22.504Z,1008.22
2023-10-23T03:06:22.538Z,1008.20
2023-10-23T03:07:22.523Z,1008.18
2023-10-23T03:08:22.541Z,1008.23
2023-10-23T03:09:22.574Z,1008.23
2023-10-23T03:10:22.572Z,1008.29
2023-10-23T03:11:22.578Z,1008.30
2023-10-23T03:12:22.638Z,1008.31
2023-10-23T03:13:22.617Z,1008.24
2023-10-23T03:14:22.628Z,1008.29
2023-10-23T03:15:22.670Z,1008.30
2023-10-23T03:16:22.733Z,1008.28
2023-10-23T03:17:22.678Z,1008.28
2023-10-23T03:18:22.816Z,1008.32
2023-10-23T03:19:22.705Z,1008.29
2023-10-23T03:20:22.708Z,1008.30
2023-10-23T03:21:22.745Z,1008.28
2023-10-23T03:22:22.736Z,1008.28
2023-10-23T03:23:22.739Z,1008.30
2023-10-23T03:24:22.790Z,1008.32
2023-10-23T03:25:22.769Z,1008.32
2023-10-23T03:26:22.788Z,1008.30
2023-10-23T03:27:22.854Z,1008.27
2023-10-23T03:28:22.820Z,1008.31
2023-10-23T03:29:22.826Z,1008.29
2023-10-23T03:30:22.861Z,1008.29
2023-10-23T03:31:22.894Z,1008.29
2023-10-23T03:32:22.865Z,1008.35
2023-10-23T03:33:22.921Z,1008.35
2023-10-23T03:34:22.893Z,1008.33
2023-10-23T03:35:22.905Z,1008.36
2023-10-23T03:36:23.000Z,1008.36
2023-10-23T03:37:22.942Z,1008.33
2023-10-23T03:38:22.951Z,1008.32
2023-10-23T03:39:22.982Z,1008.34
2023-10-23T03:40:22.973Z,1008.35
2023-10-23T03:41:22.988Z,1008.35
2023-10-23T03:42:23.014Z,1008.33
2023-10-23T03:43:23.013Z,1008.36
2023-10-23T03:44:23.031Z,1008.37
2023-10-23T03:45:23.080Z,1008.30
2023-10-23T03:46:23.205Z,1008.37
2023-10-23T03:47:23.103Z,1008.33
2023-10-23T03:48:23.124Z,1008.38
2023-10-23T03:49:23.101Z,1008.34
2023-10-23T03:50:23.116Z,1008.37
2023-10-23T03:51:23.150Z,1008.39
2023-10-23T03:52:23.137Z,1008.33
2023-10-23T03:53:23.153Z,1008.34
2023-10-23T03:54:23.191Z,1008.37
2023-10-23T03:55:23.186Z,1008.37
2023-10-23T03:56:23.193Z,1008.37
2023-10-23T03:57:23.258Z,1008.39
2023-10-23T03:58:23.215Z,1008.37
2023-10-23T03:59:23.229Z,1008.39
2023-10-23T04:00:23.260Z,1008.42
2023-10-23T04:01:23.310Z,1008.44
2023-10-23T04:02:23.273Z,1008.45
2023-10-23T04:03:23.370Z,1008.46
2023-10-23T04:04:23.387Z,1008.44
2023-10-23T04:05:23.311Z,1008.44
2023-10-23T04:06:23.397Z,1008.48
2023-10-23T04:07:23.334Z,1008.49
2023-10-23T04:08:23.351Z,1008.49
2023-10-23T04:09:23.382Z,1008.52
2023-10-23T04:10:23.375Z,1008.54
2023-10-23T04:11:23.391Z,1008.55
2023-10-23T04:12:23.474Z,1008.55
2023-10-23T04:13:23.417Z,1008.55
2023-10-23T04:14:23.780Z,1008.59
2023-10-23T04:15:23.548Z,1008.61
2023-10-23T04:16:23.512Z,1008.59
2023-10-23T04:17:23.541Z,1008.60
2023-10-23T04:18:23.497Z,1008.62
2023-10-23T04:19:23.500Z,1008.60
2023-10-23T04:20:23.517Z,1008.59
2023-10-23T04:21:23.581Z,1008.61
2023-10-23T04:22:23.549Z,1008.62
2023-10-23T04:23:23.564Z,1008.60
2023-10-23T04:24:23.591Z,1008.62
2023-10-23T04:25:23.595Z,1008.62
2023-10-23T04:26:23.604Z,1008.59
2023-10-23T04:27:23.670Z,1008.66
2023-10-23T04:28:23.636Z,1008.61
2023-10-23T04:29:23.643Z,1008.66
2023-10-23T04:30:23.711Z,1008.67
2023-10-23T04:31:23.702Z,1008.72
2023-10-23T04:32:23.690Z,1008.73
2023-10-23T04:33:23.732Z,1008.77
2023-10-23T04:34:23.720Z,1008.74
2023-10-23T04:35:23.727Z,1008.76
2023-10-23T04:36:23.766Z,1008.74
2023-10-23T04:37:23.754Z,1008.73
2023-10-23T04:38:23.775Z,1008.71
2023-10-23T04:39:23.821Z,1008.70
2023-10-23T04:40:23.798Z,1008.72
2023-10-23T04:41:23.811Z,1008.72
2023-10-23T04:42:23.885Z,1008.69
2023-10-23T04:43:23.840Z,1008.71
2023-10-23T04:44:23.885Z,1008.77
2023-10-23T04:45:23.902Z,1008.74
2023-10-23T04:46:23.944Z,1008.76
2023-10-23T04:47:23.895Z,1008.75
2023-10-23T04:48:23.952Z,1008.81
2023-10-23T04:49:23.921Z,1008.80
2023-10-23T04:50:23.935Z,1008.82
2023-10-23T04:51:24.002Z,1008.78
2023-10-23T04:52:23.964Z,1008.77
2023-10-23T04:53:23.972Z,1008.84
2023-10-23T04:54:24.030Z,1008.81
2023-10-23T04:55:24.004Z,1008.84
2023-10-23T04:56:24.013Z,1008.81
2023-10-23T04:57:24.158Z,1008.89
2023-10-23T04:58:24.140Z,1008.91
2023-10-23T04:59:24.053Z,1008.92
2023-10-23T05:00:24.085Z,1008.89
2023-10-23T05:01:24.129Z,1008.90
2023-10-23T05:02:24.098Z,1008.88
2023-10-23T05:03:24.189Z,1008.92
2023-10-23T05:04:24.195Z,1008.95
2023-10-23T05:05:24.138Z,1008.93
2023-10-23T05:06:24.171Z,1008.92
2023-10-23T05:07:24.160Z,1008.91
2023-10-23T05:08:24.175Z,1008.90
2023-10-23T05:09:24.214Z,1008.87
2023-10-23T05:10:24.200Z,1008.92
2023-10-23T05:11:24.217Z,1008.91
2023-10-23T05:12:24.250Z,1008.93
2023-10-23T05:13:24.242Z,1008.86
2023-10-23T05:14:24.254Z,1008.92
2023-10-23T05:15:24.322Z,1008.90
2023-10-23T05:16:24.474Z,1008.90
2023-10-23T05:17:24.317Z,1008.92
2023-10-23T05:18:24.344Z,1008.96
2023-10-23T05:19:24.324Z,1008.97
2023-10-23T05:20:24.340Z,1008.96
2023-10-23T05:21:24.372Z,1008.96
2023-10-23T05:22:24.360Z,1008.99
2023-10-23T05:23:24.382Z,1009.00
2023-10-23T05:24:24.405Z,1008.96
2023-10-23T05:25:24.399Z,1008.98
2023-10-23T05:26:24.417Z,1009.01
2023-10-23T05:27:24.467Z,1009.03
2023-10-23T05:28:24.435Z,1009.05
2023-10-23T05:29:24.448Z,1009.04
2023-10-23T05:30:24.491Z,1009.07
2023-10-23T05:31:24.531Z,1009.13
2023-10-23T05:32:24.532Z,1009.11
2023-10-23T05:33:24.599Z,1009.13
2023-10-23T05:34:24.535Z,1009.12
2023-10-23T05:35:24.533Z,1009.13
2023-10-23T05:36:24.551Z,1009.14
2023-10-23T05:37:24.548Z,1009.10
2023-10-23T05:38:24.560Z,1009.12
2023-10-23T05:39:24.610Z,1009.14
2023-10-23T05:40:24.595Z,1009.20
2023-10-23T05:41:24.601Z,1009.15
2023-10-23T05:42:24.651Z,1009.19
2023-10-23T05:43:24.623Z,1009.20
2023-10-23T05:44:25.454Z,1009.17
2023-10-23T05:45:24.680Z,1009.18
2023-10-23T05:46:24.760Z,1009.21
2023-10-23T05:47:24.677Z,1009.23
2023-10-23T05:48:24.768Z,1009.17
2023-10-23T05:49:24.701Z,1009.21
2023-10-23T05:50:24.711Z,1009.19
2023-10-23T05:51:24.754Z,1009.18
2023-10-23T05:52:24.734Z,1009.28
2023-10-23T05:53:24.758Z,1009.25
2023-10-23T05:54:24.794Z,1009.25
2023-10-23T05:55:24.801Z,1009.25
2023-10-23T05:56:24.794Z,1009.24
2023-10-23T05:57:24.834Z,1009.26
2023-10-23T05:58:24.813Z,1009.29
2023-10-23T05:59:24.826Z,1009.33
2023-10-23T06:00:24.857Z,1009.26
2023-10-23T06:01:24.874Z,1009.31
2023-10-23T06:02:24.871Z,1009.32
2023-10-23T06:03:24.936Z,1009.31
2023-10-23T06:04:24.986Z,1009.29
2023-10-23T06:05:24.900Z,1009.27
2023-10-23T06:06:24.960Z,1009.32
2023-10-23T06:07:25.023Z,1009.32
2023-10-23T06:08:24.940Z,1009.31
2023-10-23T06:09:24.969Z,1009.35
2023-10-23T06:10:24.963Z,1009.37
2023-10-23T06:11:24.975Z,1009.37
2023-10-23T06:12:25.003Z,1009.39
2023-10-23T06:13:25.003Z,1009.35
2023-10-23T06:14:25.020Z,1009.37
2023-10-23T06:15:25.033Z,1009.36
2023-10-23T06:16:25.148Z,1009.38
2023-10-23T06:17:25.112Z,1009.37
2023-10-23T06:18:25.110Z,1009.43
2023-10-23T06:19:25.079Z,1009.43
2023-10-23T06:20:25.096Z,1009.43
2023-10-23T06:21:25.162Z,1009.47
2023-10-23T06:22:25.121Z,1009.45
2023-10-23T06:23:25.154Z,1009.49
2023-10-23T06:24:25.197Z,1009.51
2023-10-23T06:25:25.164Z,1009.52
2023-10-23T06:26:25.174Z,1009.53
2023-10-23T06:27:25.199Z,1009.49
2023-10-23T06:28:25.196Z,1009.52
2023-10-23T06:29:25.217Z,1009.54
2023-10-23T06:30:25.266Z,1009.54
2023-10-23T06:31:25.254Z,1009.57
2023-10-23T06:32:25.248Z,1009.55
2023-10-23T06:33:25.293Z,1009.57
2023-10-23T06:34:25.272Z,1009.56
2023-10-23T06:35:25.291Z,1009.56
2023-10-23T06:36:25.321Z,1009.59
2023-10-23T06:37:25.324Z,1009.60
2023-10-23T06:38:25.392Z,1009.60
2023-10-23T06:39:25.335Z,1009.63
2023-10-23T06:40:25.377Z,1009.67
2023-10-23T06:41:25.364Z,1009.63
2023-10-23T06:42:25.386Z,1009.70
2023-10-23T06:43:25.393Z,1009.69
2023-10-23T06:44:25.409Z,1009.65
2023-10-23T06:45:37.549Z,1009.70
2023-10-23T06:46:25.577Z,1009.65
2023-10-23T06:47:25.467Z,1009.72
2023-10-23T06:48:25.606Z,1009.67
2023-10-23T06:49:25.467Z,1009.71
2023-10-23T06:50:25.482Z,1009.68
2023-10-23T06:51:25.492Z,1009.67
2023-10-23T06:52:25.515Z,1009.69
2023-10-23T06:53:25.544Z,1009.66
2023-10-23T06:54:25.597Z,1009.66
2023-10-23T06:55:25.565Z,1009.69
2023-10-23T06:56:25.577Z,1009.68
2023-10-23T06:57:25.582Z,1009.64
2023-10-23T06:58:25.601Z,1009.67
2023-10-23T06:59:25.610Z,1009.64
2023-10-23T07:00:25.675Z,1009.65
2023-10-23T07:01:37.907Z,1009.64
2023-10-23T07:02:25.682Z,1009.58
2023-10-23T07:03:25.822Z,1009.57
2023-10-23T07:04:25.694Z,1009.59
2023-10-23T07:05:25.691Z,1009.62
2023-10-23T07:06:25.712Z,1009.60
2023-10-23T07:07:29.760Z,1009.63
2023-10-23T07:08:25.737Z,1009.63
2023-10-23T07:09:25.754Z,1009.64
2023-10-23T07:10:25.775Z,1009.62
2023-10-23T07:11:25.787Z,1009.63
2023-10-23T07:12:25.836Z,1009.68
2023-10-23T07:13:25.812Z,1009.67
2023-10-23T07:14:25.868Z,1009.69
2023-10-23T07:15:25.924Z,1009.69
2023-10-23T07:16:25.942Z,1009.65
2023-10-23T07:17:25.894Z,1009.68
2023-10-23T07:18:25.988Z,1009.65
2023-10-23T07:19:25.900Z,1009.69
2023-10-23T07:20:25.917Z,1009.70
2023-10-23T07:21:25.958Z,1009.75
2023-10-23T07:22:25.948Z,1009.72
2023-10-23T07:23:25.964Z,1009.75
2023-10-23T07:24:25.983Z,1009.78
2023-10-23T07:25:25.998Z,1009.78
2023-10-23T07:26:26.015Z,1009.77
2023-10-23T07:27:26.876Z,1009.82
2023-10-23T07:28:26.039Z,1009.84
2023-10-23T07:29:26.054Z,1009.89
2023-10-23T07:30:26.089Z,1009.86
2023-10-23T07:31:26.106Z,1009.87
2023-10-23T07:32:26.115Z,1009.93
2023-10-23T07:33:26.115Z,1009.96
2023-10-23T07:34:26.131Z,1009.97
2023-10-23T07:35:26.234Z,1009.98
2023-10-23T07:36:26.161Z,1009.98
2023-10-23T07:37:26.172Z,1009.99
2023-10-23T07:38:26.192Z,1010.00
2023-10-23T07:39:26.221Z,1010.00
2023-10-23T07:40:26.214Z,1010.01
2023-10-23T07:41:26.230Z,1009.98
2023-10-23T07:42:26.243Z,1010.03
2023-10-23T07:43:26.256Z,1010.04
2023-10-23T07:44:26.271Z,1010.03
2023-10-23T07:45:26.293Z,1010.05
2023-10-23T07:46:26.342Z,1010.06
2023-10-23T07:47:26.353Z,1010.08
2023-10-23T07:48:28.560Z,1010.07
2023-10-23T07:49:26.344Z,1010.03
2023-10-23T07:50:26.365Z,1010.07
2023-10-23T07:51:26.376Z,1010.07
2023-10-23T07:52:26.401Z,1010.04
2023-10-23T07:53:26.413Z,1010.05
2023-10-23T07:54:26.424Z,1010.10
2023-10-23T07:55:26.508Z,1010.06
2023-10-23T07:56:26.456Z,1010.06
2023-10-23T07:57:26.477Z,1010.09
2023-10-23T07:58:26.491Z,1010.13
2023-10-23T07:59:26.499Z,1010.13
2023-10-23T08:00:26.520Z,1010.15
2023-10-23T08:01:26.717Z,1010.17
2023-10-23T08:02:26.691Z,1010.17
2023-10-23T08:03:26.678Z,1010.17
2023-10-23T08:04:26.620Z,1010.14
2023-10-23T08:05:26.657Z,1010.14
2023-10-23T08:06:26.611Z,1010.14
2023-10-23T08:07:26.625Z,1010.17
2023-10-23T08:08:26.648Z,1010.09
2023-10-23T08:09:26.664Z,1010.13
2023-10-23T08:10:26.734Z,1010.14
2023-10-23T08:11:26.721Z,1010.12
2023-10-23T08:12:26.718Z,1010.14
2023-10-23T08:13:26.733Z,1010.13
2023-10-23T08:14:26.743Z,1010.16
2023-10-23T08:15:26.904Z,1010.23
2023-10-23T08:16:26.906Z,1010.24
2023-10-23T08:17:41.415Z,1010.27
2023-10-23T08:18:37.294Z,1010.22
2023-10-23T08:19:26.851Z,1010.27
2023-10-23T08:20:26.864Z,1010.26
2023-10-23T08:21:26.858Z,1010.24
2023-10-23T08:22:26.949Z,1010.28
2023-10-23T08:23:26.891Z,1010.25
2023-10-23T08:24:26.906Z,1010.26
2023-10-23T08:25:27.085Z,1010.28
2023-10-23T08:26:26.946Z,1010.24
2023-10-23T08:27:26.956Z,1010.28
2023-10-23T08:28:28.874Z,1010.25
2023-10-23T08:29:26.994Z,1010.25
2023-10-23T08:30:27.016Z,1010.24
2023-10-23T08:31:38.571Z,1010.26
2023-10-23T08:32:34.322Z,1010.27
2023-10-23T08:33:27.169Z,1010.29
2023-10-23T08:34:27.258Z,1010.30
2023-10-23T08:35:27.097Z,1010.28
2023-10-23T08:36:27.170Z,1010.20
2023-10-23T08:37:27.284Z,1010.25
2023-10-23T08:38:27.151Z,1010.31
2023-10-23T08:39:27.163Z,1010.29
2023-10-23T08:40:27.181Z,1010.27
2023-10-23T08:41:27.220Z,1010.32
2023-10-23T08:42:27.216Z,1010.30
2023-10-23T08:43:27.232Z,1010.36
2023-10-23T08:44:27.249Z,1010.38
2023-10-23T08:45:27.272Z,1010.42
2023-10-23T08:46:27.423Z,1010.37
2023-10-23T08:47:27.315Z,1010.40
2023-10-23T08:48:27.324Z,1010.40
2023-10-23T08:49:27.371Z,1010.40
2023-10-23T08:50:27.360Z,1010.39
2023-10-23T08:51:27.375Z,1010.40
2023-10-23T08:52:27.394Z,1010.42
2023-10-23T08:53:27.409Z,1010.45
2023-10-23T08:54:27.428Z,1010.43
2023-10-23T08:55:27.456Z,1010.41
2023-10-23T08:56:27.461Z,1010.39
2023-10-23T08:57:27.520Z,1010.38
2023-10-23T08:58:27.507Z,1010.34
2023-10-23T08:59:27.526Z,1010.33
2023-10-23T09:00:27.543Z,1010.32
2023-10-23T09:01:27.622Z,1010.31
2023-10-23T09:02:27.575Z,1010.30
2023-10-23T09:04:02.252Z,1010.33
2023-10-23T09:04:27.775Z,1010.37
2023-10-23T09:05:27.772Z,1010.41
2023-10-23T09:06:27.650Z,1010.40
2023-10-23T09:07:27.714Z,1010.34
2023-10-23T09:08:27.679Z,1010.31
2023-10-23T09:09:27.698Z,1010.33
2023-10-23T09:10:27.781Z,1010.29
2023-10-23T09:11:27.736Z,1010.30
2023-10-23T09:12:27.755Z,1010.26
2023-10-23T09:13:27.777Z,1010.33
2023-10-23T09:14:27.867Z,1010.31
2023-10-23T09:15:27.813Z,1010.34
2023-10-23T09:16:27.902Z,1010.32
2023-10-23T09:17:27.895Z,1010.33
2023-10-23T09:18:27.862Z,1010.34
2023-10-23T09:19:27.891Z,1010.31
2023-10-23T09:20:28.781Z,1010.25
2023-10-23T09:21:27.952Z,1010.28
2023-10-23T09:22:27.969Z,1010.24
2023-10-23T09:23:27.957Z,1010.21
2023-10-23T09:24:27.980Z,1010.21
2023-10-23T09:25:28.073Z,1010.23
2023-10-23T09:26:28.033Z,1010.26
2023-10-23T09:27:28.034Z,1010.25
2023-10-23T09:28:28.050Z,1010.23
2023-10-23T09:29:28.112Z,1010.29
2023-10-23T09:30:28.091Z,1010.20
2023-10-23T09:31:28.261Z,1010.25
2023-10-23T09:32:28.155Z,1010.21
2023-10-23T09:33:28.148Z,1010.22
2023-10-23T09:34:28.167Z,1010.23
2023-10-23T09:35:28.187Z,1010.24
2023-10-23T09:36:28.373Z,1010.21
2023-10-23T09:37:28.269Z,1010.21
2023-10-23T09:38:28.244Z,1010.24
2023-10-23T09:39:28.311Z,1010.32
2023-10-23T09:40:28.331Z,1010.28
2023-10-23T09:41:28.305Z,1010.28
2023-10-23T09:42:28.337Z,1010.23
2023-10-23T09:43:28.383Z,1010.26
2023-10-23T09:44:28.415Z,1010.27
2023-10-23T09:45:28.398Z,1010.26
2023-10-23T09:46:28.471Z,1010.28
2023-10-23T09:47:28.447Z,1010.26
2023-10-23T09:48:28.506Z,1010.26
2023-10-23T09:49:28.560Z,1010.25
2023-10-23T09:50:28.784Z,1010.21
2023-10-23T09:51:28.501Z,1010.18
2023-10-23T09:52:28.525Z,1010.16
2023-10-23T09:53:28.540Z,1010.15
2023-10-23T09:54:28.558Z,1010.15
2023-10-23T09:55:28.621Z,1010.09
2023-10-23T09:56:28.600Z,1010.09
2023-10-23T09:57:28.621Z,1010.04
2023-10-23T09:58:28.638Z,1010.08
2023-10-23T09:59:28.654Z,1010.09
2023-10-23T10:00:28.681Z,1010.07
2023-10-23T10:01:28.773Z,1010.08
2023-10-23T10:02:28.742Z,1010.10
2023-10-23T10:03:28.877Z,1010.14
2023-10-23T10:04:28.814Z,1010.17
2023-10-23T10:05:28.780Z,1010.14
2023-10-23T10:06:28.795Z,1010.15
2023-10-23T10:07:28.907Z,1010.11
2023-10-23T10:08:28.835Z,1010.07
2023-10-23T10:09:28.869Z,1010.10
2023-10-23T10:10:28.926Z,1010.10
2023-10-23T10:11:28.900Z,1010.11
2023-10-23T10:12:29.259Z,1010.12
2023-10-23T10:13:28.936Z,1010.13
2023-10-23T10:14:28.961Z,1010.14
2023-10-23T10:15:28.975Z,1010.13
2023-10-23T10:16:29.064Z,1010.14
2023-10-23T10:17:29.047Z,1010.12
2023-10-23T10:18:29.035Z,1010.11
2023-10-23T10:19:29.056Z,1010.14
2023-10-23T10:20:29.075Z,1010.16
2023-10-23T10:21:29.099Z,1010.18
2023-10-23T10:22:29.140Z,1010.15
2023-10-23T10:23:29.138Z,1010.16
2023-10-23T10:24:29.162Z,1010.15
2023-10-23T10:25:29.218Z,1010.12
2023-10-23T10:26:29.204Z,1010.14
2023-10-23T10:27:29.216Z,1010.09
2023-10-23T10:28:29.243Z,1010.10
2023-10-23T10:29:29.267Z,1010.08
2023-10-23T10:30:29.284Z,1010.13
2023-10-23T10:31:29.388Z,1010.11
2023-10-23T10:32:29.336Z,1010.11
2023-10-23T10:34:27.666Z,1010.08
2023-10-23T10:34:31.423Z,1010.09
2023-10-23T10:35:41.585Z,1010.04
2023-10-23T10:36:45.363Z,1010.01
2023-10-23T10:37:29.757Z,1010.02
2023-10-23T10:38:29.452Z,1010.00
2023-10-23T10:39:29.473Z,1010.01
2023-10-23T10:40:29.494Z,1010.09
2023-10-23T10:41:29.516Z,1010.03
2023-10-23T10:42:29.599Z,1010.05
2023-10-23T10:43:29.556Z,1010.06
2023-10-23T10:44:29.579Z,1010.05
2023-10-23T10:45:29.603Z,1010.07
2023-10-23T10:46:29.695Z,1010.04
2023-10-23T10:47:29.705Z,1010.03
2023-10-23T10:48:29.663Z,1009.99
2023-10-23T10:49:29.794Z,1009.97
2023-10-23T10:50:29.707Z,1010.02
2023-10-23T10:51:29.726Z,1009.94
2023-10-23T10:52:29.985Z,1009.98
2023-10-23T10:53:29.770Z,1009.97
2023-10-23T10:54:29.802Z,1009.93
2023-10-23T10:55:29.832Z,1009.87
2023-10-23T10:56:29.839Z,1009.84
2023-10-23T10:57:29.857Z,1009.83
2023-10-23T10:58:29.908Z,1009.76
2023-10-23T10:59:29.902Z,1009.78
2023-10-23T11:00:29.919Z,1009.77
2023-10-23T11:01:30.044Z,1009.73
2023-10-23T11:02:30.015Z,1009.76
2023-10-23T11:03:30.056Z,1009.76
2023-10-23T11:04:30.040Z,1009.69
2023-10-23T11:05:30.040Z,1009.76
2023-10-23T11:06:30.049Z,1009.77
2023-10-23T11:07:30.067Z,1009.78
2023-10-23T11:08:30.095Z,1009.73
2023-10-23T11:09:30.112Z,1009.75
2023-10-23T11:10:30.162Z,1009.79
2023-10-23T11:11:30.150Z,1009.76
2023-10-23T11:12:30.179Z,1009.76
2023-10-23T11:13:30.234Z,1009.73
2023-10-23T11:14:30.213Z,1009.77
2023-10-23T11:15:30.231Z,1009.73
2023-10-23T11:16:30.337Z,1009.72
2023-10-23T11:17:30.311Z,1009.66
2023-10-23T11:18:30.298Z,1009.63
2023-10-23T11:19:30.321Z,1009.64
2023-10-23T11:20:30.363Z,1009.67
2023-10-23T11:21:30.362Z,1009.69
2023-10-23T11:22:30.379Z,1009.71
2023-10-23T11:23:30.405Z,1009.68
2023-10-23T11:24:30.429Z,1009.71
2023-10-23T11:25:30.447Z,1009.66
2023-10-23T11:26:30.461Z,1009.67
2023-10-23T11:27:30.482Z,1009.66
2023-10-23T11:28:30.504Z,1009.65
2023-10-23T11:29:30.523Z,1009.62
2023-10-23T11:30:30.556Z,1009.62
2023-10-23T11:31:30.618Z,1009.64
2023-10-23T11:32:30.606Z,1009.59
2023-10-23T11:33:30.607Z,1009.59
2023-10-23T11:34:30.700Z,1009.62
2023-10-23T11:35:30.654Z,1009.67
2023-10-23T11:36:30.667Z,1009.65
2023-10-23T11:37:30.689Z,1009.66
2023-10-23T11:38:30.715Z,1009.65
2023-10-23T11:39:30.728Z,1009.69
2023-10-23T11:40:30.749Z,1009.68
2023-10-23T11:41:30.771Z,1009.67
2023-10-23T11:42:30.790Z,1009.71
2023-10-23T11:43:30.809Z,1009.64
2023-10-23T11:44:30.829Z,1009.63
2023-10-23T11:45:30.862Z,1009.67
2023-10-23T11:46:30.990Z,1009.62
2023-10-23T11:47:30.928Z,1009.60
2023-10-23T11:48:30.911Z,1009.55
2023-10-23T11:49:30.932Z,1009.53
2023-10-23T11:50:30.958Z,1009.62
2023-10-23T11:51:31.007Z,1009.57
2023-10-23T11:52:30.988Z,1009.58
2023-10-23T11:53:31.010Z,1009.55
2023-10-23T11:54:31.052Z,1009.59
2023-10-23T11:55:31.117Z,1009.58
2023-10-23T11:56:31.121Z,1009.59
2023-10-23T11:57:31.089Z,1009.62
2023-10-23T11:58:31.110Z,1009.62
2023-10-23T11:59:31.180Z,1009.60
2023-10-23T12:00:31.225Z,1009.64
2023-10-23T12:01:31.268Z,1009.62
2023-10-23T12:02:31.228Z,1009.62
2023-10-23T12:03:31.210Z,1009.65
2023-10-23T12:04:31.313Z,1009.64
2023-10-23T12:05:31.251Z,1009.62